createdAt,value
2022-09-15T00:00:12.170Z,12.70
2022-09-15T00:02:40.157Z,14.43
2022-09-15T00:05:07.760Z,11.73
2022-09-15T00:07:41.767Z,15.65
2022-09-15T00:10:09.525Z,12.40
2022-09-15T00:12:37.752Z,12.82
2022-09-15T00:15:14.913Z,16.13
2022-09-15T00:17:43.629Z,14.40
2022-09-15T00:20:21.659Z,13.90
2022-09-15T00:22:49.680Z,12.45
2022-09-15T00:25:23.900Z,14.25
2022-09-15T00:27:50.819Z,12.50
2022-09-15T00:30:19.960Z,12.55
2022-09-15T00:32:51.933Z,13.48
2022-09-15T00:35:21.800Z,14.68
2022-09-15T00:37:50.810Z,14.27
2022-09-15T00:40:18.044Z,16.42
2022-09-15T00:42:46.052Z,15.40
2022-09-15T00:45:16.492Z,15.25
2022-09-15T00:47:44.947Z,15.57
2022-09-15T00:50:22.255Z,16.25
2022-09-15T00:53:05.575Z,15.35
2022-09-15T00:55:43.750Z,16.48
2022-09-15T00:58:34.675Z,17.55
2022-09-15T01:01:04.265Z,18.38
2022-09-15T01:04:18.205Z,17.05
2022-09-15T01:06:58.906Z,16.08
2022-09-15T01:09:41.853Z,19.45
2022-09-15T01:12:13.933Z,16.67
2022-09-15T01:14:45.119Z,17.45
2022-09-15T01:17:14.299Z,17.13
2022-09-15T01:20:10.649Z,19.20
2022-09-15T01:23:31.513Z,16.75
2022-09-15T01:26:20.212Z,15.20
2022-09-15T01:29:17.559Z,18.17
2022-09-15T01:32:10.791Z,20.83
2022-09-15T01:34:55.406Z,16.63
2022-09-15T01:37:32.205Z,18.55
2022-09-15T01:40:06.928Z,18.88
2022-09-15T01:42:38.178Z,17.30
2022-09-15T01:45:14.466Z,18.73
2022-09-15T01:47:45.147Z,18.38
2022-09-15T01:50:25.230Z,18.55
2022-09-15T01:52:57.997Z,18.55
2022-09-15T01:55:38.193Z,21.23
2022-09-15T01:58:12.104Z,19.67
2022-09-15T02:00:47.427Z,19.38
2022-09-15T02:03:39.737Z,19.15
2022-09-15T02:06:17.190Z,19.02
2022-09-15T02:08:47.929Z,22.15
2022-09-15T02:11:26.934Z,20.05
2022-09-15T02:14:11.600Z,19.20
2022-09-15T02:16:43.512Z,20.58
2022-09-15T02:19:32.025Z,21.60
2022-09-15T02:22:23.238Z,20.77
2022-09-15T02:25:33.916Z,21.73
2022-09-15T02:28:09.154Z,19.73
2022-09-15T02:30:49.446Z,19.88
2022-09-15T02:33:36.171Z,22.63
2022-09-15T02:39:49.501Z,25.60
2022-09-15T02:42:33.470Z,23.23
2022-09-15T02:45:09.232Z,24.75
2022-09-15T02:48:01.108Z,22.23
2022-09-15T02:50:39.346Z,22.95
2022-09-15T02:53:29.127Z,23.02
2022-09-15T02:55:58.270Z,30.55
2022-09-15T03:02:16.662Z,22.30
2022-09-15T03:05:35.170Z,23.15
2022-09-15T03:08:10.506Z,21.58
2022-09-15T03:10:46.742Z,33.28
2022-09-15T03:13:24.102Z,29.65
2022-09-15T03:16:09.565Z,26.17
2022-09-15T03:19:20.142Z,42.10
2022-09-15T03:22:00.429Z,30.83
2022-09-15T03:24:35.944Z,25.80
2022-09-15T03:27:34.607Z,26.50
2022-09-15T03:30:11.663Z,26.30
2022-09-15T03:32:49.847Z,18.92
2022-09-15T03:35:33.485Z,19.27
2022-09-15T03:38:33.796Z,19.45
2022-09-15T03:41:22.951Z,17.92
2022-09-15T03:43:55.301Z,16.75
2022-09-15T03:46:38.344Z,17.23
2022-09-15T03:49:11.526Z,17.42
2022-09-15T03:51:51.476Z,18.67
2022-09-15T03:55:05.182Z,21.27
2022-09-15T03:57:34.171Z,17.88
2022-09-15T04:00:05.510Z,12.23
2022-09-15T04:02:33.500Z,10.43
2022-09-15T04:05:00.644Z,8.68
2022-09-15T04:07:30.558Z,7.20
2022-09-15T04:10:10.092Z,5.28
2022-09-15T04:12:37.163Z,3.28
2022-09-15T04:15:04.635Z,3.35
2022-09-15T04:17:33.691Z,2.97
2022-09-15T04:20:03.351Z,3.10
2022-09-15T04:22:33.325Z,3.17
2022-09-15T04:25:01.326Z,3.92
2022-09-15T04:27:29.472Z,3.78
2022-09-15T04:30:07.444Z,3.63
2022-09-15T04:32:36.369Z,4.00
2022-09-15T04:35:08.811Z,4.38
2022-09-15T04:37:35.950Z,4.77
2022-09-15T04:40:04.378Z,3.33
2022-09-15T04:42:31.972Z,3.47
2022-09-15T04:44:59.489Z,2.83
2022-09-15T04:47:37.787Z,2.85
2022-09-15T04:50:05.118Z,3.72
2022-09-15T04:52:34.309Z,3.28
2022-09-15T04:55:07.965Z,4.72
2022-09-15T04:57:38.029Z,3.35
2022-09-15T05:00:07.381Z,3.47
2022-09-15T05:02:42.806Z,6.30
2022-09-15T05:05:09.998Z,4.10
2022-09-15T05:07:38.142Z,3.97
2022-09-15T05:10:08.524Z,3.20
2022-09-15T05:12:35.689Z,4.35
2022-09-15T05:15:04.099Z,4.32
2022-09-15T05:17:40.136Z,3.10
2022-09-15T05:20:08.467Z,3.47
2022-09-15T05:22:39.526Z,3.75
2022-09-15T05:25:08.926Z,3.35
2022-09-15T05:27:36.896Z,3.45
2022-09-15T05:30:34.851Z,4.50
2022-09-15T05:32:57.995Z,3.53
2022-09-15T05:35:25.677Z,3.42
2022-09-15T05:37:53.659Z,3.85
2022-09-15T05:40:22.484Z,4.40
2022-09-15T05:42:49.552Z,3.95
2022-09-15T05:45:19.570Z,3.90
2022-09-15T05:47:46.550Z,6.63
2022-09-15T05:50:18.687Z,4.53
2022-09-15T05:52:51.589Z,5.72
2022-09-15T05:55:18.845Z,5.30
2022-09-15T05:57:47.928Z,4.65
2022-09-15T06:00:17.156Z,4.68
2022-09-15T06:02:45.290Z,4.80
2022-09-15T06:05:13.663Z,5.43
2022-09-15T06:07:41.701Z,6.90
2022-09-15T06:10:10.218Z,6.30
2022-09-15T06:12:43.182Z,7.32
2022-09-15T06:15:12.896Z,6.45
2022-09-15T06:17:41.867Z,7.20
2022-09-15T06:20:22.098Z,7.78
2022-09-15T06:22:49.085Z,7.68
2022-09-15T06:25:16.227Z,7.20
2022-09-15T06:27:43.210Z,6.93
2022-09-15T06:30:10.986Z,8.18
2022-09-15T06:32:38.183Z,9.30
2022-09-15T06:35:07.417Z,9.25
2022-09-15T06:37:37.604Z,10.73
2022-09-15T06:40:05.528Z,9.13
2022-09-15T06:42:34.412Z,10.85
2022-09-15T06:45:01.570Z,10.57
2022-09-15T06:47:34.228Z,9.88
2022-09-15T06:50:03.791Z,9.05
2022-09-15T06:52:31.843Z,9.63
2022-09-15T06:55:01.018Z,8.40
2022-09-15T06:57:30.048Z,9.38
2022-09-15T06:59:58.277Z,8.98
2022-09-15T07:02:26.436Z,8.88
2022-09-15T07:04:53.774Z,10.43
2022-09-15T07:07:24.025Z,9.98
2022-09-15T07:09:52.511Z,13.20
2022-09-15T07:12:29.386Z,11.27
2022-09-15T07:14:57.415Z,10.82
2022-09-15T07:17:26.969Z,12.98
2022-09-15T07:19:58.981Z,15.23
2022-09-15T07:22:34.084Z,14.20
2022-09-15T07:25:28.586Z,14.65
2022-09-15T07:27:57.649Z,14.48
2022-09-15T07:30:45.108Z,16.83
2022-09-15T07:33:14.528Z,17.10
2022-09-15T07:35:47.976Z,18.00
2022-09-15T07:38:15.082Z,16.30
2022-09-15T07:40:49.334Z,14.00
2022-09-15T07:43:16.576Z,16.33
2022-09-15T07:45:53.019Z,12.00
2022-09-15T07:48:25.794Z,12.23
2022-09-15T07:51:00.240Z,14.02
2022-09-15T07:56:03.935Z,14.85
2022-09-15T07:58:33.864Z,17.23
2022-09-15T08:01:06.893Z,26.23
2022-09-15T08:03:34.972Z,16.25
2022-09-15T08:06:24.623Z,14.77
2022-09-15T08:08:56.383Z,11.20
2022-09-15T08:11:32.886Z,12.87
2022-09-15T08:14:03.513Z,14.98
2022-09-15T08:16:32.058Z,13.60
2022-09-15T08:19:07.442Z,12.23
2022-09-15T08:21:40.792Z,15.65
2022-09-15T08:24:14.185Z,12.73
2022-09-15T08:26:51.305Z,13.38
2022-09-15T08:29:35.648Z,11.50
2022-09-15T08:32:04.968Z,13.93
2022-09-15T08:34:33.901Z,13.70
2022-09-15T08:37:04.086Z,13.70
2022-09-15T08:39:32.204Z,19.73
2022-09-15T08:42:06.850Z,11.80
2022-09-15T08:44:37.674Z,15.80
2022-09-15T08:47:17.742Z,11.00
2022-09-15T08:49:57.514Z,8.73
2022-09-15T08:52:41.945Z,13.48
2022-09-15T08:55:38.197Z,13.05
2022-09-15T08:58:30.006Z,13.10
2022-09-15T09:01:16.476Z,9.32
2022-09-15T09:04:21.652Z,8.95
2022-09-15T09:07:25.811Z,10.85
2022-09-15T09:10:19.829Z,8.93
2022-09-15T09:12:56.828Z,12.85
2022-09-15T09:15:32.886Z,9.07
2022-09-15T09:18:30.900Z,10.00
2022-09-15T09:21:40.136Z,9.82
2022-09-15T09:24:26.581Z,9.40
2022-09-15T09:26:56.115Z,10.07
2022-09-15T09:30:00.996Z,10.57
2022-09-15T09:32:39.620Z,10.05
2022-09-15T09:35:32.829Z,12.27
2022-09-15T09:38:15.033Z,10.32
2022-09-15T09:40:43.377Z,9.57
2022-09-15T09:43:11.395Z,11.23
2022-09-15T09:45:38.549Z,9.32
2022-09-15T09:48:26.649Z,12.13
2022-09-15T09:50:59.786Z,13.35
2022-09-15T09:53:36.960Z,11.40
2022-09-15T09:56:25.797Z,10.65
2022-09-15T09:59:00.026Z,15.77
2022-09-15T10:01:28.263Z,9.68
2022-09-15T10:04:23.224Z,10.38
2022-09-15T10:06:56.412Z,10.98
2022-09-15T10:09:23.521Z,8.27
2022-09-15T10:12:32.180Z,10.00
2022-09-15T10:15:05.452Z,10.23
2022-09-15T10:17:59.710Z,8.63
2022-09-15T10:23:28.117Z,9.90
2022-09-15T10:26:00.362Z,8.37
2022-09-15T10:29:17.371Z,8.02
2022-09-15T10:31:46.492Z,10.65
2022-09-15T10:34:26.965Z,11.02
2022-09-15T10:37:06.538Z,9.98
2022-09-15T10:39:54.621Z,10.70
2022-09-15T10:42:44.340Z,10.68
2022-09-15T10:45:25.937Z,7.95
2022-09-15T10:48:16.224Z,11.73
2022-09-15T10:50:55.493Z,9.18
2022-09-15T10:53:29.523Z,6.97
2022-09-15T10:56:16.633Z,9.93
2022-09-15T10:59:32.428Z,6.72
2022-09-15T11:02:14.895Z,7.15
2022-09-15T11:05:00.650Z,8.82
2022-09-15T11:10:27.457Z,13.80
2022-09-15T11:13:18.816Z,10.23
2022-09-15T11:15:48.817Z,11.32
2022-09-15T11:18:40.099Z,8.60
2022-09-15T11:21:27.136Z,8.15
2022-09-15T11:24:22.439Z,11.98
2022-09-15T11:26:58.237Z,9.85
2022-09-15T11:29:29.792Z,8.68
2022-09-15T11:32:12.138Z,9.23
2022-09-15T11:34:51.330Z,9.13
2022-09-15T11:37:45.571Z,12.27
2022-09-15T11:40:41.360Z,9.88
2022-09-15T11:43:21.115Z,9.57
2022-09-15T11:45:54.775Z,10.65
2022-09-15T11:48:41.410Z,10.13
2022-09-15T11:51:16.165Z,9.73
2022-09-15T11:53:48.999Z,9.40
2022-09-15T11:56:43.033Z,8.37
2022-09-15T11:59:27.876Z,12.65
2022-09-15T12:02:28.749Z,8.77
2022-09-15T12:05:19.594Z,10.90
2022-09-15T12:08:02.825Z,8.63
2022-09-15T12:10:41.267Z,8.80
2022-09-15T12:13:18.524Z,10.13
2022-09-15T12:16:09.159Z,9.65
2022-09-15T12:18:57.739Z,14.48
2022-09-15T12:21:51.620Z,10.35
2022-09-15T12:24:40.016Z,11.00
2022-09-15T12:27:18.742Z,13.35
2022-09-15T12:29:56.479Z,13.75
2022-09-15T12:32:27.217Z,11.23
2022-09-15T12:35:18.084Z,16.00
2022-09-15T12:37:54.056Z,12.95
2022-09-15T12:41:18.517Z,14.30
2022-09-15T12:44:05.259Z,12.77
2022-09-15T12:46:33.401Z,15.15
2022-09-15T12:49:13.740Z,14.15
2022-09-15T12:51:50.287Z,12.93
2022-09-15T12:54:29.805Z,10.43
2022-09-15T12:56:59.702Z,12.63
2022-09-15T12:59:29.221Z,13.25
2022-09-15T13:01:58.203Z,9.32
2022-09-15T13:04:51.760Z,11.63
2022-09-15T13:07:21.223Z,14.27
2022-09-15T13:10:08.474Z,13.02
2022-09-15T13:12:41.492Z,12.82
2022-09-15T13:15:15.033Z,11.07
2022-09-15T13:17:46.701Z,13.02
2022-09-15T13:20:34.593Z,14.18
2022-09-15T13:23:04.102Z,13.75
2022-09-15T13:25:31.576Z,12.00
2022-09-15T13:28:01.937Z,12.43
2022-09-15T13:30:43.320Z,12.80
2022-09-15T13:40:32.756Z,9.38
2022-09-15T13:43:33.316Z,7.38
2022-09-15T13:46:35.838Z,8.93
2022-09-15T13:49:38.300Z,10.10
2022-09-15T13:52:23.573Z,11.43
2022-09-15T13:55:19.074Z,10.93
2022-09-15T14:01:00.374Z,13.98
2022-09-15T14:03:40.212Z,11.70
2022-09-15T14:06:43.275Z,11.88
2022-09-15T14:12:08.370Z,13.82
2022-09-15T14:14:44.683Z,13.10
2022-09-15T14:17:30.130Z,14.00
2022-09-15T14:20:00.909Z,15.65
2022-09-15T14:22:30.612Z,17.42
2022-09-15T14:25:16.855Z,16.42
2022-09-15T14:27:47.142Z,13.50
2022-09-15T14:30:27.182Z,13.38
2022-09-15T14:33:00.701Z,12.25
2022-09-15T14:35:35.809Z,20.58
2022-09-15T14:38:03.239Z,14.32
2022-09-15T14:40:36.175Z,12.38
2022-09-15T14:43:40.960Z,10.65
2022-09-15T14:46:13.898Z,13.20
2022-09-15T14:49:08.143Z,11.37
2022-09-15T14:51:46.654Z,11.90
2022-09-15T14:54:24.777Z,8.10
2022-09-15T14:56:55.274Z,9.50
2022-09-15T14:59:42.013Z,19.58
2022-09-15T15:02:33.332Z,12.02
2022-09-15T15:05:26.665Z,13.48
2022-09-15T15:07:55.837Z,12.25
2022-09-15T15:10:28.569Z,6.43
2022-09-15T15:13:21.132Z,11.27
2022-09-15T15:15:49.086Z,10.30
2022-09-15T15:18:40.322Z,10.98
2022-09-15T15:21:41.366Z,9.65
2022-09-15T15:24:14.212Z,9.35
2022-09-15T15:26:44.878Z,9.63
2022-09-15T15:29:48.423Z,10.35
2022-09-15T15:32:27.412Z,5.95
2022-09-15T15:35:04.303Z,9.02
2022-09-15T15:37:34.247Z,7.15
2022-09-15T15:40:07.399Z,7.40
2022-09-15T15:43:07.189Z,6.38
2022-09-15T15:45:57.824Z,10.02
2022-09-15T15:48:26.223Z,10.27
2022-09-15T15:50:54.664Z,9.00
2022-09-15T15:53:21.992Z,9.65
2022-09-15T15:55:49.072Z,9.93
2022-09-15T15:58:45.098Z,7.55
2022-09-15T16:01:28.804Z,9.38
2022-09-15T16:03:56.948Z,6.50
2022-09-15T16:06:25.206Z,9.77
2022-09-15T16:09:03.451Z,7.85
2022-09-15T16:11:33.817Z,8.32
2022-09-15T16:14:00.899Z,24.00
2022-09-15T16:16:33.166Z,17.15
2022-09-15T16:19:19.438Z,38.25
2022-09-15T16:21:47.606Z,14.40
2022-09-15T16:24:16.079Z,10.63
2022-09-15T16:26:43.831Z,11.43
2022-09-15T16:29:36.549Z,10.18
2022-09-15T16:32:07.652Z,12.50
2022-09-15T16:34:34.664Z,8.68
2022-09-15T16:37:01.858Z,11.40
2022-09-15T16:39:31.566Z,11.18
2022-09-15T16:44:26.391Z,12.40
2022-09-15T16:46:53.478Z,16.13
2022-09-15T16:49:20.795Z,15.38
2022-09-15T16:51:48.887Z,17.45
2022-09-15T16:54:20.506Z,15.10
2022-09-15T16:56:56.766Z,16.75
2022-09-15T16:59:37.139Z,14.13
2022-09-15T17:02:12.756Z,17.55
2022-09-15T17:04:41.898Z,15.07
2022-09-15T17:07:11.946Z,20.48
2022-09-15T17:09:47.468Z,17.27
2022-09-15T17:12:14.703Z,18.83
2022-09-15T17:14:45.751Z,14.45
2022-09-15T17:17:25.701Z,21.85
2022-09-15T17:19:55.690Z,15.18
2022-09-15T17:22:25.851Z,15.32
2022-09-15T17:24:56.874Z,19.10
2022-09-15T17:27:25.154Z,18.45
2022-09-15T17:29:53.296Z,16.63
2022-09-15T17:32:20.418Z,21.77
2022-09-15T17:34:47.646Z,18.70
2022-09-15T17:37:18.876Z,18.23
2022-09-15T17:39:58.899Z,15.90
2022-09-15T17:42:31.670Z,19.42
2022-09-15T17:45:36.605Z,21.58
2022-09-15T17:48:05.088Z,21.45
2022-09-15T17:50:40.249Z,20.48
2022-09-15T17:53:22.933Z,18.92
2022-09-15T17:55:55.899Z,23.10
2022-09-15T17:58:25.405Z,19.52
2022-09-15T18:00:53.479Z,17.98
2022-09-15T18:03:33.878Z,19.42
2022-09-15T18:06:12.305Z,17.13
2022-09-15T18:08:40.249Z,17.80
2022-09-15T18:11:14.765Z,19.83
2022-09-15T18:13:42.236Z,20.58
2022-09-15T18:16:14.764Z,19.33
2022-09-15T18:18:42.304Z,17.70
2022-09-15T18:21:22.547Z,19.33
2022-09-15T18:23:51.218Z,16.70
2022-09-15T18:26:23.862Z,18.67
2022-09-15T18:28:55.008Z,19.77
2022-09-15T18:31:22.594Z,29.98
2022-09-15T18:33:49.920Z,22.98
2022-09-15T18:36:17.335Z,23.23
2022-09-15T18:38:44.798Z,18.67
2022-09-15T18:41:12.422Z,22.08
2022-09-15T18:43:39.921Z,21.17
2022-09-15T18:46:08.414Z,20.30
2022-09-15T18:48:35.756Z,18.75
2022-09-15T18:51:08.923Z,21.42
2022-09-15T18:53:39.602Z,21.38
2022-09-15T18:56:14.476Z,20.75
2022-09-15T18:58:42.059Z,25.60
2022-09-15T19:01:10.543Z,19.60
2022-09-15T19:03:44.866Z,20.08
2022-09-15T19:06:12.701Z,18.88
2022-09-15T19:08:41.298Z,20.00
2022-09-15T19:11:16.796Z,19.92
2022-09-15T19:13:44.156Z,21.02
2022-09-15T19:16:11.655Z,21.35
2022-09-15T19:18:39.850Z,19.30
2022-09-15T19:21:09.190Z,19.77
2022-09-15T19:23:36.607Z,17.92
2022-09-15T19:26:09.119Z,18.70
2022-09-15T19:28:36.438Z,20.15
2022-09-15T19:31:03.771Z,19.13
2022-09-15T19:33:32.098Z,18.60
2022-09-15T19:36:24.191Z,22.83
2022-09-15T19:38:54.766Z,17.55
2022-09-15T19:41:23.074Z,19.65
2022-09-15T19:43:50.089Z,17.38
2022-09-15T19:46:21.298Z,18.20
2022-09-15T19:48:50.185Z,17.42
2022-09-15T19:51:18.167Z,16.92
2022-09-15T19:53:46.843Z,18.27
2022-09-15T19:56:18.750Z,14.20
2022-09-15T19:58:46.631Z,18.00
2022-09-15T20:01:15.685Z,14.57
2022-09-15T20:06:35.799Z,15.00
2022-09-15T20:09:08.084Z,15.32
2022-09-15T20:11:36.186Z,15.98
2022-09-15T20:14:06.854Z,17.77
2022-09-15T20:16:35.907Z,18.17
2022-09-15T20:19:05.216Z,17.52
2022-09-15T20:21:49.820Z,16.83
2022-09-15T20:24:29.837Z,18.33
2022-09-15T20:27:00.861Z,16.65
2022-09-15T20:29:28.073Z,17.10
2022-09-15T20:31:56.245Z,16.33
2022-09-15T20:34:23.237Z,14.88
2022-09-15T20:36:51.271Z,15.55
2022-09-15T20:39:22.374Z,16.33
2022-09-15T20:41:52.570Z,21.23
2022-09-15T20:44:23.528Z,19.23
2022-09-15T20:46:53.862Z,16.02
2022-09-15T20:49:25.003Z,16.55
2022-09-15T20:51:53.280Z,14.60
2022-09-15T20:54:25.618Z,16.77
2022-09-15T20:56:52.636Z,14.30
2022-09-15T20:59:26.832Z,12.10
2022-09-15T21:01:57.018Z,13.77
2022-09-15T21:04:25.083Z,15.18
2022-09-15T21:06:55.198Z,17.80
2022-09-15T21:09:22.204Z,13.23
2022-09-15T21:11:53.584Z,14.23
2022-09-15T21:14:22.906Z,16.20
2022-09-15T21:16:55.057Z,15.35
2022-09-15T21:19:22.215Z,15.57
2022-09-15T21:21:54.710Z,14.50
2022-09-15T21:24:22.935Z,14.63
2022-09-15T21:27:08.149Z,18.02
2022-09-15T21:29:36.207Z,13.60
2022-09-15T21:32:05.324Z,11.43
2022-09-15T21:34:32.360Z,15.73
2022-09-15T21:36:59.358Z,10.50
2022-09-15T21:39:27.847Z,11.50
2022-09-15T21:41:56.019Z,10.68
2022-09-15T21:44:28.160Z,13.93
2022-09-15T21:47:01.426Z,13.57
2022-09-15T21:49:38.611Z,13.80
2022-09-15T21:52:05.663Z,12.13
2022-09-15T21:54:33.700Z,12.48
2022-09-15T21:57:00.929Z,13.15
2022-09-15T21:59:28.967Z,14.45
2022-09-15T22:01:58.130Z,11.32
2022-09-15T22:04:26.258Z,11.65
2022-09-15T22:07:04.736Z,12.02
2022-09-15T22:09:39.019Z,10.10
2022-09-15T22:12:06.317Z,8.18
2022-09-15T22:14:39.530Z,12.25
2022-09-15T22:17:17.984Z,12.43
2022-09-15T22:19:51.175Z,10.50
2022-09-15T22:22:18.258Z,12.00
2022-09-15T22:24:45.337Z,11.48
2022-09-15T22:27:12.293Z,9.52
2022-09-15T22:29:41.438Z,11.05
2022-09-15T22:32:09.382Z,10.18
2022-09-15T22:34:38.415Z,9.77
2022-09-15T22:37:05.548Z,10.68
2022-09-15T22:39:57.150Z,7.82
2022-09-15T22:42:26.187Z,10.18
2022-09-15T22:45:01.249Z,10.20
2022-09-15T22:47:45.219Z,11.80
2022-09-15T22:50:12.400Z,8.00
2022-09-15T22:52:40.391Z,9.30
2022-09-15T22:55:07.838Z,9.75
2022-09-15T22:57:41.952Z,8.55
2022-09-15T23:00:11.782Z,9.35
2022-09-15T23:02:38.850Z,10.10
2022-09-15T23:05:10.317Z,13.48
2022-09-15T23:07:37.352Z,10.30
2022-09-15T23:10:06.572Z,10.25
2022-09-15T23:12:35.228Z,12.75
2022-09-15T23:15:04.689Z,11.77
2022-09-15T23:17:36.138Z,9.68
2022-09-15T23:20:06.417Z,14.70
2022-09-15T23:22:33.448Z,10.77
2022-09-15T23:25:01.530Z,11.65
2022-09-15T23:27:38.469Z,11.88
2022-09-15T23:30:10.321Z,12.60
2022-09-15T23:32:41.309Z,12.20
2022-09-15T23:35:08.774Z,16.45
2022-09-15T23:37:35.922Z,16.95
2022-09-15T23:40:04.171Z,17.02
2022-09-15T23:42:33.333Z,13.35
2022-09-15T23:45:07.844Z,15.63
2022-09-15T23:47:40.072Z,13.02
2022-09-15T23:50:07.373Z,15.38
2022-09-15T23:52:34.449Z,12.18
2022-09-15T23:55:01.574Z,10.90
2022-09-15T23:57:43.841Z,15.98
